sensor_id;sensor_type;location;lat;lon;timestamp;P1;P2;P0
50589;PMS7003;36547;50.514;30.840;2023-12-20T00:00:50;14.60;13.50;10.20
50589;PMS7003;36547;50.514;30.840;2023-12-20T00:01:56;18.00;16.60;11.50
50589;PMS7003;36547;50.514;30.840;2023-12-20T00:03:11;19.20;17.50;11.00
50589;PMS7003;36547;50.514;30.840;2023-12-20T00:04:16;18.20;14.90;10.30
50589;PMS7003;36547;50.514;30.840;2023-12-20T00:05:22;15.40;13.90;10.20
50589;PMS7003;36547;50.514;30.840;2023-12-20T00:06:28;17.50;14.40;11.30
50589;PMS7003;36547;50.514;30.840;2023-12-20T00:07:37;16.60;13.40;10.60
50589;PMS7003;36547;50.514;30.840;2023-12-20T00:08:46;15.00;12.40;10.10
50589;PMS7003;36547;50.514;30.840;2023-12-20T00:09:50;17.60;12.90;10.30
50589;PMS7003;36547;50.514;30.840;2023-12-20T00:10:55;14.40;13.20;9.90
50589;PMS7003;36547;50.514;30.840;2023-12-20T00:12:00;14.50;13.30;10.10
50589;PMS7003;36547;50.514;30.840;2023-12-20T00:13:03;14.40;12.80;9.70
50589;PMS7003;36547;50.514;30.840;2023-12-20T00:14:12;16.90;14.00;9.50
50589;PMS7003;36547;50.514;30.840;2023-12-20T00:15:17;14.90;13.40;10.90
50589;PMS7003;36547;50.514;30.840;2023-12-20T00:16:20;13.90;12.10;9.80
50589;PMS7003;36547;50.514;30.840;2023-12-20T00:17:23;15.60;13.90;10.50
50589;PMS7003;36547;50.514;30.840;2023-12-20T00:18:32;13.90;13.90;10.70
50589;PMS7003;36547;50.514;30.840;2023-12-20T00:19:36;15.30;14.10;9.60
50589;PMS7003;36547;50.514;30.840;2023-12-20T00:20:41;15.10;13.30;10.60
50589;PMS7003;36547;50.514;30.840;2023-12-20T00:22:05;13.50;13.50;10.50
50589;PMS7003;36547;50.514;30.840;2023-12-20T00:23:07;18.00;16.50;10.80
50589;PMS7003;36547;50.514;30.840;2023-12-20T00:24:14;20.40;15.10;10.50
50589;PMS7003;36547;50.514;30.840;2023-12-20T00:25:18;17.60;16.00;11.40
50589;PMS7003;36547;50.514;30.840;2023-12-20T00:26:42;17.80;13.10;10.20
50589;PMS7003;36547;50.514;30.840;2023-12-20T00:27:49;16.70;15.00;11.50
50589;PMS7003;36547;50.514;30.840;2023-12-20T00:29:04;19.00;15.70;12.40
50589;PMS7003;36547;50.514;30.840;2023-12-20T00:30:13;19.50;17.40;14.10
50589;PMS7003;36547;50.514;30.840;2023-12-20T00:31:17;14.40;14.40;10.70
50589;PMS7003;36547;50.514;30.840;2023-12-20T00:32:22;18.60;16.20;11.60
50589;PMS7003;36547;50.514;30.840;2023-12-20T00:33:27;17.30;17.30;12.50
50589;PMS7003;36547;50.514;30.840;2023-12-20T00:34:32;16.90;15.80;11.40
50589;PMS7003;36547;50.514;30.840;2023-12-20T00:35:39;16.70;14.80;11.50
50589;PMS7003;36547;50.514;30.840;2023-12-20T00:36:46;16.20;14.30;10.10
50589;PMS7003;36547;50.514;30.840;2023-12-20T00:37:52;13.60;13.50;10.10
50589;PMS7003;36547;50.514;30.840;2023-12-20T00:38:57;18.10;14.40;10.70
50589;PMS7003;36547;50.514;30.840;2023-12-20T00:40:00;17.70;15.20;11.50
50589;PMS7003;36547;50.514;30.840;2023-12-20T00:41:09;13.40;13.40;10.20
50589;PMS7003;36547;50.514;30.840;2023-12-20T00:42:16;18.40;15.80;11.20
50589;PMS7003;36547;50.514;30.840;2023-12-20T00:43:21;14.00;14.00;10.80
50589;PMS7003;36547;50.514;30.840;2023-12-20T00:44:29;20.00;18.10;13.30
50589;PMS7003;36547;50.514;30.840;2023-12-20T00:45:37;15.50;14.10;11.30
50589;PMS7003;36547;50.514;30.840;2023-12-20T00:46:48;15.00;14.50;10.10
50589;PMS7003;36547;50.514;30.840;2023-12-20T00:47:54;16.30;14.10;9.50
50589;PMS7003;36547;50.514;30.840;2023-12-20T00:48:58;12.70;12.20;9.30
50589;PMS7003;36547;50.514;30.840;2023-12-20T00:50:02;16.50;14.40;10.10
50589;PMS7003;36547;50.514;30.840;2023-12-20T00:51:10;16.60;14.10;10.70
50589;PMS7003;36547;50.514;30.840;2023-12-20T00:52:14;15.90;15.20;11.00
50589;PMS7003;36547;50.514;30.840;2023-12-20T00:53:18;15.70;12.60;10.00
50589;PMS7003;36547;50.514;30.840;2023-12-20T00:54:23;13.50;13.50;10.10
50589;PMS7003;36547;50.514;30.840;2023-12-20T00:55:32;15.20;14.30;10.80
50589;PMS7003;36547;50.514;30.840;2023-12-20T00:56:36;14.40;14.40;10.90
50589;PMS7003;36547;50.514;30.840;2023-12-20T00:57:40;14.70;12.90;9.80
50589;PMS7003;36547;50.514;30.840;2023-12-20T00:58:47;15.50;15.20;11.50
50589;PMS7003;36547;50.514;30.840;2023-12-20T00:59:50;12.80;11.50;9.00
50589;PMS7003;36547;50.514;30.840;2023-12-20T01:00:53;15.60;14.00;9.60
50589;PMS7003;36547;50.514;30.840;2023-12-20T01:02:00;16.70;14.00;9.70
50589;PMS7003;36547;50.514;30.840;2023-12-20T01:03:08;16.00;14.30;11.30
50589;PMS7003;36547;50.514;30.840;2023-12-20T01:04:13;15.20;12.70;10.70
50589;PMS7003;36547;50.514;30.840;2023-12-20T01:05:18;14.80;13.70;9.90
50589;PMS7003;36547;50.514;30.840;2023-12-20T01:06:24;18.70;16.60;11.90
50589;PMS7003;36547;50.514;30.840;2023-12-20T01:07:27;17.60;15.80;12.60
50589;PMS7003;36547;50.514;30.840;2023-12-20T01:08:33;21.00;17.70;11.30
50589;PMS7003;36547;50.514;30.840;2023-12-20T01:09:38;16.40;16.40;12.80
50589;PMS7003;36547;50.514;30.840;2023-12-20T01:10:41;17.90;14.70;10.80
50589;PMS7003;36547;50.514;30.840;2023-12-20T01:11:45;17.00;15.80;11.40
50589;PMS7003;36547;50.514;30.840;2023-12-20T01:12:55;22.90;18.20;13.50
50589;PMS7003;36547;50.514;30.840;2023-12-20T01:13:59;18.90;17.60;12.80
50589;PMS7003;36547;50.514;30.840;2023-12-20T01:15:02;17.40;16.70;12.10
50589;PMS7003;36547;50.514;30.840;2023-12-20T01:16:09;18.20;16.80;12.90
50589;PMS7003;36547;50.514;30.840;2023-12-20T01:17:21;20.10;17.40;12.50
50589;PMS7003;36547;50.514;30.840;2023-12-20T01:18:23;19.20;15.30;11.40
50589;PMS7003;36547;50.514;30.840;2023-12-20T01:19:26;17.30;15.90;10.80
50589;PMS7003;36547;50.514;30.840;2023-12-20T01:20:30;14.10;11.90;10.00
50589;PMS7003;36547;50.514;30.840;2023-12-20T01:21:32;14.80;13.40;10.30
50589;PMS7003;36547;50.514;30.840;2023-12-20T01:22:34;17.30;11.50;9.00
50589;PMS7003;36547;50.514;30.840;2023-12-20T01:23:37;15.70;12.60;10.00
50589;PMS7003;36547;50.514;30.840;2023-12-20T01:24:39;13.90;13.90;11.10
50589;PMS7003;36547;50.514;30.840;2023-12-20T01:25:42;13.60;12.90;10.90
50589;PMS7003;36547;50.514;30.840;2023-12-20T01:26:44;12.90;12.60;10.30
50589;PMS7003;36547;50.514;30.840;2023-12-20T01:27:47;9.30;7.10;3.70
50589;PMS7003;36547;50.514;30.840;2023-12-20T01:28:50;13.00;12.55;10.00
50589;PMS7003;36547;50.514;30.840;2023-12-20T01:29:52;13.40;12.50;10.30
50589;PMS7003;36547;50.514;30.840;2023-12-20T01:30:54;16.80;12.90;9.70
50589;PMS7003;36547;50.514;30.840;2023-12-20T01:31:57;13.20;11.50;8.90
50589;PMS7003;36547;50.514;30.840;2023-12-20T01:33:00;16.30;14.50;11.30
50589;PMS7003;36547;50.514;30.840;2023-12-20T01:34:02;13.64;11.91;9.45
50589;PMS7003;36547;50.514;30.840;2023-12-20T01:35:05;15.60;14.80;11.10
50589;PMS7003;36547;50.514;30.840;2023-12-20T01:36:09;19.30;17.10;13.60
50589;PMS7003;36547;50.514;30.840;2023-12-20T01:37:11;20.50;18.70;12.90
50589;PMS7003;36547;50.514;30.840;2023-12-20T01:38:14;21.00;19.90;14.60
50589;PMS7003;36547;50.514;30.840;2023-12-20T01:39:17;22.40;17.80;13.10
50589;PMS7003;36547;50.514;30.840;2023-12-20T01:40:22;21.90;20.50;14.50
50589;PMS7003;36547;50.514;30.840;2023-12-20T01:41:25;21.70;20.20;13.50
50589;PMS7003;36547;50.514;30.840;2023-12-20T01:42:27;19.10;18.00;12.60
50589;PMS7003;36547;50.514;30.840;2023-12-20T01:43:29;21.10;18.50;13.90
50589;PMS7003;36547;50.514;30.840;2023-12-20T01:44:34;17.80;16.30;12.40
50589;PMS7003;36547;50.514;30.840;2023-12-20T01:45:37;23.10;19.30;13.80
50589;PMS7003;36547;50.514;30.840;2023-12-20T01:46:39;18.80;17.30;10.80
50589;PMS7003;36547;50.514;30.840;2023-12-20T01:47:42;22.40;20.50;14.90
50589;PMS7003;36547;50.514;30.840;2023-12-20T01:48:44;28.27;24.45;15.45
50589;PMS7003;36547;50.514;30.840;2023-12-20T01:49:47;23.80;22.90;17.20
50589;PMS7003;36547;50.514;30.840;2023-12-20T01:50:51;24.40;21.70;16.00
50589;PMS7003;36547;50.514;30.840;2023-12-20T01:51:54;22.00;21.55;14.82
50589;PMS7003;36547;50.514;30.840;2023-12-20T01:52:57;23.36;20.64;13.00
50589;PMS7003;36547;50.514;30.840;2023-12-20T01:54:09;16.20;16.20;11.50
50589;PMS7003;36547;50.514;30.840;2023-12-20T01:55:13;17.80;17.50;12.50
50589;PMS7003;36547;50.514;30.840;2023-12-20T01:56:18;18.80;15.70;11.70
50589;PMS7003;36547;50.514;30.840;2023-12-20T01:57:20;14.00;12.00;9.60
50589;PMS7003;36547;50.514;30.840;2023-12-20T01:58:23;12.90;12.10;9.10
50589;PMS7003;36547;50.514;30.840;2023-12-20T01:59:26;15.36;14.00;10.36
50589;PMS7003;36547;50.514;30.840;2023-12-20T02:00:31;14.00;13.10;10.90
50589;PMS7003;36547;50.514;30.840;2023-12-20T02:01:34;17.40;16.00;10.60
50589;PMS7003;36547;50.514;30.840;2023-12-20T02:02:39;19.40;18.60;13.40
50589;PMS7003;36547;50.514;30.840;2023-12-20T02:03:42;18.60;15.10;11.10
50589;PMS7003;36547;50.514;30.840;2023-12-20T02:04:46;12.70;12.10;7.50
50589;PMS7003;36547;50.514;30.840;2023-12-20T02:05:48;20.00;16.70;12.50
50589;PMS7003;36547;50.514;30.840;2023-12-20T02:06:52;21.55;21.09;13.36
50589;PMS7003;36547;50.514;30.840;2023-12-20T02:07:55;23.10;19.50;13.50
50589;PMS7003;36547;50.514;30.840;2023-12-20T02:08:57;21.00;19.60;13.50
50589;PMS7003;36547;50.514;30.840;2023-12-20T02:10:01;23.30;19.50;15.20
50589;PMS7003;36547;50.514;30.840;2023-12-20T02:11:03;26.00;21.70;13.50
50589;PMS7003;36547;50.514;30.840;2023-12-20T02:12:06;21.90;20.80;13.80
50589;PMS7003;36547;50.514;30.840;2023-12-20T02:13:08;24.70;23.00;15.50
50589;PMS7003;36547;50.514;30.840;2023-12-20T02:14:10;21.50;18.50;14.10
50589;PMS7003;36547;50.514;30.840;2023-12-20T02:15:13;22.10;18.70;13.70
50589;PMS7003;36547;50.514;30.840;2023-12-20T02:16:16;18.30;17.50;11.90
50589;PMS7003;36547;50.514;30.840;2023-12-20T02:17:18;17.50;17.50;11.30
50589;PMS7003;36547;50.514;30.840;2023-12-20T02:18:22;20.70;16.90;11.80
50589;PMS7003;36547;50.514;30.840;2023-12-20T02:19:26;14.10;12.90;8.90
50589;PMS7003;36547;50.514;30.840;2023-12-20T02:20:29;15.27;15.27;10.91
50589;PMS7003;36547;50.514;30.840;2023-12-20T02:21:31;20.50;17.30;11.00
50589;PMS7003;36547;50.514;30.840;2023-12-20T02:22:34;17.70;16.60;13.10
50589;PMS7003;36547;50.514;30.840;2023-12-20T02:23:36;19.60;17.30;13.40
50589;PMS7003;36547;50.514;30.840;2023-12-20T02:24:39;18.30;15.80;10.40
50589;PMS7003;36547;50.514;30.840;2023-12-20T02:25:42;17.40;16.00;11.00
50589;PMS7003;36547;50.514;30.840;2023-12-20T02:26:45;11.10;10.40;8.20
50589;PMS7003;36547;50.514;30.840;2023-12-20T02:27:49;17.50;15.50;11.10
50589;PMS7003;36547;50.514;30.840;2023-12-20T02:28:52;18.30;15.00;11.20
50589;PMS7003;36547;50.514;30.840;2023-12-20T02:29:55;18.50;17.00;11.90
50589;PMS7003;36547;50.514;30.840;2023-12-20T02:30:58;16.90;16.90;12.80
50589;PMS7003;36547;50.514;30.840;2023-12-20T02:32:00;17.40;14.20;10.00
50589;PMS7003;36547;50.514;30.840;2023-12-20T02:33:03;14.60;14.00;11.50
50589;PMS7003;36547;50.514;30.840;2023-12-20T02:34:09;17.50;16.10;11.30
50589;PMS7003;36547;50.514;30.840;2023-12-20T02:35:11;16.40;14.00;11.00
50589;PMS7003;36547;50.514;30.840;2023-12-20T02:36:14;17.70;16.40;11.60
50589;PMS7003;36547;50.514;30.840;2023-12-20T02:37:16;19.50;17.00;13.10
50589;PMS7003;36547;50.514;30.840;2023-12-20T02:38:20;22.10;18.90;12.90
50589;PMS7003;36547;50.514;30.840;2023-12-20T02:39:22;20.80;20.10;14.10
50589;PMS7003;36547;50.514;30.840;2023-12-20T02:40:25;18.30;18.30;13.20
50589;PMS7003;36547;50.514;30.840;2023-12-20T02:41:27;21.70;20.90;13.80
50589;PMS7003;36547;50.514;30.840;2023-12-20T02:42:30;24.70;22.50;15.30
50589;PMS7003;36547;50.514;30.840;2023-12-20T02:43:33;16.50;16.10;8.40
50589;PMS7003;36547;50.514;30.840;2023-12-20T02:44:35;29.67;27.78;18.78
50589;PMS7003;36547;50.514;30.840;2023-12-20T02:45:37;23.60;23.10;17.00
50589;PMS7003;36547;50.514;30.840;2023-12-20T02:46:39;24.70;21.50;14.90
50589;PMS7003;36547;50.514;30.840;2023-12-20T02:47:42;23.20;21.40;14.70
50589;PMS7003;36547;50.514;30.840;2023-12-20T02:48:45;20.80;19.50;13.40
50589;PMS7003;36547;50.514;30.840;2023-12-20T02:49:47;19.50;17.00;13.20
50589;PMS7003;36547;50.514;30.840;2023-12-20T02:50:50;19.10;18.00;12.90
50589;PMS7003;36547;50.514;30.840;2023-12-20T02:51:53;17.20;16.60;11.90
50589;PMS7003;36547;50.514;30.840;2023-12-20T02:52:56;18.70;15.70;12.50
50589;PMS7003;36547;50.514;30.840;2023-12-20T02:53:59;17.40;17.40;12.00
50589;PMS7003;36547;50.514;30.840;2023-12-20T02:55:01;18.20;15.90;11.30
50589;PMS7003;36547;50.514;30.840;2023-12-20T02:56:04;16.64;16.36;12.64
50589;PMS7003;36547;50.514;30.840;2023-12-20T02:57:06;21.70;20.40;13.70
50589;PMS7003;36547;50.514;30.840;2023-12-20T02:58:09;23.90;19.70;15.00
50589;PMS7003;36547;50.514;30.840;2023-12-20T02:59:12;27.50;24.70;15.80
50589;PMS7003;36547;50.514;30.840;2023-12-20T03:00:15;39.64;31.27;19.73
50589;PMS7003;36547;50.514;30.840;2023-12-20T03:01:17;34.90;30.70;20.70
50589;PMS7003;36547;50.514;30.840;2023-12-20T03:02:20;24.45;23.27;13.09
50589;PMS7003;36547;50.514;30.840;2023-12-20T03:03:22;27.00;23.70;13.70
50589;PMS7003;36547;50.514;30.840;2023-12-20T03:04:24;27.40;24.40;15.60
50589;PMS7003;36547;50.514;30.840;2023-12-20T03:05:26;22.60;18.60;12.70
50589;PMS7003;36547;50.514;30.840;2023-12-20T03:06:29;13.90;12.50;6.20
50589;PMS7003;36547;50.514;30.840;2023-12-20T03:07:32;21.20;18.10;13.00
50589;PMS7003;36547;50.514;30.840;2023-12-20T03:08:34;21.40;20.30;13.70
50589;PMS7003;36547;50.514;30.840;2023-12-20T03:09:37;18.60;16.50;13.00
50589;PMS7003;36547;50.514;30.840;2023-12-20T03:10:41;20.30;17.60;12.20
50589;PMS7003;36547;50.514;30.840;2023-12-20T03:11:44;25.10;23.60;17.20
50589;PMS7003;36547;50.514;30.840;2023-12-20T03:12:46;25.10;24.00;17.00
50589;PMS7003;36547;50.514;30.840;2023-12-20T03:13:48;23.80;22.70;16.60
50589;PMS7003;36547;50.514;30.840;2023-12-20T03:14:51;22.40;22.00;15.90
50589;PMS7003;36547;50.514;30.840;2023-12-20T03:15:54;19.80;19.50;14.30
50589;PMS7003;36547;50.514;30.840;2023-12-20T03:16:56;23.60;20.10;13.60
50589;PMS7003;36547;50.514;30.840;2023-12-20T03:18:00;21.00;20.50;14.60
50589;PMS7003;36547;50.514;30.840;2023-12-20T03:19:03;23.30;22.40;15.00
50589;PMS7003;36547;50.514;30.840;2023-12-20T03:20:08;26.90;24.60;16.60
50589;PMS7003;36547;50.514;30.840;2023-12-20T03:21:11;27.90;22.30;15.00
50589;PMS7003;36547;50.514;30.840;2023-12-20T03:22:14;23.45;20.45;14.36
50589;PMS7003;36547;50.514;30.840;2023-12-20T03:23:16;20.60;18.90;12.50
50589;PMS7003;36547;50.514;30.840;2023-12-20T03:24:20;19.30;17.80;13.60
50589;PMS7003;36547;50.514;30.840;2023-12-20T03:25:28;15.60;14.50;8.60
50589;PMS7003;36547;50.514;30.840;2023-12-20T03:26:33;21.40;16.90;11.40
50589;PMS7003;36547;50.514;30.840;2023-12-20T03:27:38;18.00;17.80;11.90
50589;PMS7003;36547;50.514;30.840;2023-12-20T03:28:42;18.20;18.20;12.80
50589;PMS7003;36547;50.514;30.840;2023-12-20T03:29:56;16.90;15.70;11.90
50589;PMS7003;36547;50.514;30.840;2023-12-20T03:31:06;16.90;14.50;10.20
50589;PMS7003;36547;50.514;30.840;2023-12-20T03:32:14;15.70;13.40;9.30
50589;PMS7003;36547;50.514;30.840;2023-12-20T03:33:18;18.60;15.60;11.20
50589;PMS7003;36547;50.514;30.840;2023-12-20T03:34:22;16.70;15.50;12.20
50589;PMS7003;36547;50.514;30.840;2023-12-20T03:35:26;18.70;14.70;10.70
50589;PMS7003;36547;50.514;30.840;2023-12-20T03:36:33;19.70;16.50;11.90
50589;PMS7003;36547;50.514;30.840;2023-12-20T03:37:38;24.00;22.00;13.60
50589;PMS7003;36547;50.514;30.840;2023-12-20T03:38:45;20.50;17.30;13.50
50589;PMS7003;36547;50.514;30.840;2023-12-20T03:39:49;21.30;18.70;13.60
50589;PMS7003;36547;50.514;30.840;2023-12-20T03:40:51;22.40;17.50;13.00
50589;PMS7003;36547;50.514;30.840;2023-12-20T03:41:55;19.40;17.70;12.50
50589;PMS7003;36547;50.514;30.840;2023-12-20T03:43:02;17.70;15.90;11.50
50589;PMS7003;36547;50.514;30.840;2023-12-20T03:44:05;13.90;12.60;7.80
50589;PMS7003;36547;50.514;30.840;2023-12-20T03:45:17;15.80;14.80;10.90
50589;PMS7003;36547;50.514;30.840;2023-12-20T03:46:25;13.70;10.80;9.00
50589;PMS7003;36547;50.514;30.840;2023-12-20T03:47:31;14.10;12.60;9.50
50589;PMS7003;36547;50.514;30.840;2023-12-20T03:48:34;12.80;12.00;10.20
50589;PMS7003;36547;50.514;30.840;2023-12-20T03:49:38;13.80;12.90;9.90
50589;PMS7003;36547;50.514;30.840;2023-12-20T03:50:45;14.80;13.80;10.40
50589;PMS7003;36547;50.514;30.840;2023-12-20T03:51:53;14.20;13.30;8.70
50589;PMS7003;36547;50.514;30.840;2023-12-20T03:53:00;13.50;13.50;11.00
50589;PMS7003;36547;50.514;30.840;2023-12-20T03:54:03;10.00;9.20;7.60
50589;PMS7003;36547;50.514;30.840;2023-12-20T03:55:16;14.60;13.40;9.30
50589;PMS7003;36547;50.514;30.840;2023-12-20T03:56:24;14.00;11.90;8.40
50589;PMS7003;36547;50.514;30.840;2023-12-20T03:57:50;9.50;9.50;6.80
50589;PMS7003;36547;50.514;30.840;2023-12-20T03:58:55;12.90;12.90;9.20
50589;PMS7003;36547;50.514;30.840;2023-12-20T04:00:00;12.80;11.90;9.00
50589;PMS7003;36547;50.514;30.840;2023-12-20T04:01:10;10.80;8.60;6.30
50589;PMS7003;36547;50.514;30.840;2023-12-20T04:02:18;12.80;11.50;9.00
50589;PMS7003;36547;50.514;30.840;2023-12-20T04:03:22;12.10;11.40;9.00
50589;PMS7003;36547;50.514;30.840;2023-12-20T04:04:25;14.30;12.50;9.90
50589;PMS7003;36547;50.514;30.840;2023-12-20T04:05:31;12.40;11.10;8.80
50589;PMS7003;36547;50.514;30.840;2023-12-20T04:06:35;12.90;12.00;8.30
50589;PMS7003;36547;50.514;30.840;2023-12-20T04:07:41;13.90;12.10;9.30
50589;PMS7003;36547;50.514;30.840;2023-12-20T04:08:48;14.10;12.80;9.70
50589;PMS7003;36547;50.514;30.840;2023-12-20T04:09:51;10.80;7.40;5.10
50589;PMS7003;36547;50.514;30.840;2023-12-20T04:10:56;10.60;9.90;8.80
50589;PMS7003;36547;50.514;30.840;2023-12-20T04:12:01;15.00;13.00;9.30
50589;PMS7003;36547;50.514;30.840;2023-12-20T04:13:05;11.90;11.10;7.50
50589;PMS7003;36547;50.514;30.840;2023-12-20T04:14:10;12.20;11.10;8.10
50589;PMS7003;36547;50.514;30.840;2023-12-20T04:15:14;8.00;8.00;4.70
50589;PMS7003;36547;50.514;30.840;2023-12-20T04:16:21;12.40;9.50;6.60
50589;PMS7003;36547;50.514;30.840;2023-12-20T04:17:26;14.10;13.70;8.40
50589;PMS7003;36547;50.514;30.840;2023-12-20T04:18:31;14.00;12.50;8.70
50589;PMS7003;36547;50.514;30.840;2023-12-20T04:19:37;13.80;13.30;9.50
50589;PMS7003;36547;50.514;30.840;2023-12-20T04:20:43;14.00;13.50;10.70
50589;PMS7003;36547;50.514;30.840;2023-12-20T04:21:46;15.70;13.70;10.50
50589;PMS7003;36547;50.514;30.840;2023-12-20T04:22:52;14.20;12.70;9.60
50589;PMS7003;36547;50.514;30.840;2023-12-20T04:23:59;13.60;13.00;9.90
50589;PMS7003;36547;50.514;30.840;2023-12-20T04:25:03;13.20;12.70;9.10
50589;PMS7003;36547;50.514;30.840;2023-12-20T04:26:08;15.30;14.00;9.80
50589;PMS7003;36547;50.514;30.840;2023-12-20T04:27:12;13.10;11.60;8.50
50589;PMS7003;36547;50.514;30.840;2023-12-20T04:28:17;12.30;12.30;8.60
50589;PMS7003;36547;50.514;30.840;2023-12-20T04:29:24;12.50;12.50;9.50
50589;PMS7003;36547;50.514;30.840;2023-12-20T04:30:47;19.20;14.50;10.80
50589;PMS7003;36547;50.514;30.840;2023-12-20T04:31:51;17.10;14.40;11.40
50589;PMS7003;36547;50.514;30.840;2023-12-20T04:32:57;19.10;14.40;10.00
50589;PMS7003;36547;50.514;30.840;2023-12-20T04:34:05;13.50;13.50;10.20
50589;PMS7003;36547;50.514;30.840;2023-12-20T04:35:09;16.70;15.40;10.80
50589;PMS7003;36547;50.514;30.840;2023-12-20T04:36:15;20.00;16.40;12.10
50589;PMS7003;36547;50.514;30.840;2023-12-20T04:37:19;18.50;16.20;11.80
50589;PMS7003;36547;50.514;30.840;2023-12-20T04:38:24;17.60;15.30;11.00
50589;PMS7003;36547;50.514;30.840;2023-12-20T04:39:27;17.20;16.50;11.80
50589;PMS7003;36547;50.514;30.840;2023-12-20T04:40:32;19.70;18.60;13.60
50589;PMS7003;36547;50.514;30.840;2023-12-20T04:41:34;20.60;19.00;13.80
50589;PMS7003;36547;50.514;30.840;2023-12-20T04:42:36;22.50;19.70;14.40
50589;PMS7003;36547;50.514;30.840;2023-12-20T04:43:39;20.10;16.70;12.90
50589;PMS7003;36547;50.514;30.840;2023-12-20T04:44:42;22.27;20.55;13.09
50589;PMS7003;36547;50.514;30.840;2023-12-20T04:45:44;22.70;20.90;13.50
50589;PMS7003;36547;50.514;30.840;2023-12-20T04:46:46;21.90;19.80;13.70
50589;PMS7003;36547;50.514;30.840;2023-12-20T04:47:49;23.50;22.20;15.20
50589;PMS7003;36547;50.514;30.840;2023-12-20T04:48:51;21.70;20.70;14.10
50589;PMS7003;36547;50.514;30.840;2023-12-20T04:49:54;26.80;22.80;15.30
50589;PMS7003;36547;50.514;30.840;2023-12-20T04:50:57;23.30;21.30;14.10
50589;PMS7003;36547;50.514;30.840;2023-12-20T04:51:59;26.30;21.50;15.10
50589;PMS7003;36547;50.514;30.840;2023-12-20T04:53:02;24.30;24.10;16.00
50589;PMS7003;36547;50.514;30.840;2023-12-20T04:54:04;21.80;21.50;14.30
50589;PMS7003;36547;50.514;30.840;2023-12-20T04:55:07;18.60;16.40;11.40
50589;PMS7003;36547;50.514;30.840;2023-12-20T04:56:11;26.80;24.30;16.40
50589;PMS7003;36547;50.514;30.840;2023-12-20T04:57:13;28.70;26.30;17.10
50589;PMS7003;36547;50.514;30.840;2023-12-20T04:58:16;24.00;23.30;16.20
50589;PMS7003;36547;50.514;30.840;2023-12-20T04:59:19;29.60;20.90;14.00
50589;PMS7003;36547;50.514;30.840;2023-12-20T05:00:24;27.00;24.70;15.60
50589;PMS7003;36547;50.514;30.840;2023-12-20T05:01:26;30.30;24.10;16.70
50589;PMS7003;36547;50.514;30.840;2023-12-20T05:02:28;26.80;25.40;16.50
50589;PMS7003;36547;50.514;30.840;2023-12-20T05:03:30;29.50;25.80;15.10
50589;PMS7003;36547;50.514;30.840;2023-12-20T05:04:33;27.50;25.60;16.20
50589;PMS7003;36547;50.514;30.840;2023-12-20T05:05:35;25.60;21.60;15.70
50589;PMS7003;36547;50.514;30.840;2023-12-20T05:06:38;31.60;27.60;16.10
50589;PMS7003;36547;50.514;30.840;2023-12-20T05:07:40;24.50;22.80;15.80
50589;PMS7003;36547;50.514;30.840;2023-12-20T05:08:44;22.90;19.20;14.10
50589;PMS7003;36547;50.514;30.840;2023-12-20T05:09:46;17.50;17.20;11.40
50589;PMS7003;36547;50.514;30.840;2023-12-20T05:10:48;22.50;20.70;15.70
50589;PMS7003;36547;50.514;30.840;2023-12-20T05:11:51;21.20;20.00;14.00
50589;PMS7003;36547;50.514;30.840;2023-12-20T05:12:54;22.10;21.70;15.50
50589;PMS7003;36547;50.514;30.840;2023-12-20T05:13:56;23.20;23.10;14.70
50589;PMS7003;36547;50.514;30.840;2023-12-20T05:14:58;26.90;22.40;14.20
50589;PMS7003;36547;50.514;30.840;2023-12-20T05:16:01;21.70;21.30;14.60
50589;PMS7003;36547;50.514;30.840;2023-12-20T05:17:03;23.40;22.40;15.40
50589;PMS7003;36547;50.514;30.840;2023-12-20T05:18:06;20.60;20.60;14.90
50589;PMS7003;36547;50.514;30.840;2023-12-20T05:19:08;17.60;17.40;10.70
50589;PMS7003;36547;50.514;30.840;2023-12-20T05:20:12;21.10;19.60;14.20
50589;PMS7003;36547;50.514;30.840;2023-12-20T05:21:15;24.60;23.00;15.50
50589;PMS7003;36547;50.514;30.840;2023-12-20T05:22:19;25.10;23.00;15.60
50589;PMS7003;36547;50.514;30.840;2023-12-20T05:23:22;18.82;18.82;14.18
50589;PMS7003;36547;50.514;30.840;2023-12-20T05:24:24;22.60;20.70;14.90
50589;PMS7003;36547;50.514;30.840;2023-12-20T05:25:26;13.20;11.50;6.60
50589;PMS7003;36547;50.514;30.840;2023-12-20T05:26:29;19.80;19.10;12.60
50589;PMS7003;36547;50.514;30.840;2023-12-20T05:27:31;19.11;17.33;11.22
50589;PMS7003;36547;50.514;30.840;2023-12-20T05:28:34;22.70;20.60;14.80
50589;PMS7003;36547;50.514;30.840;2023-12-20T05:29:36;18.80;16.70;12.70
50589;PMS7003;36547;50.514;30.840;2023-12-20T05:30:39;23.18;20.36;13.27
50589;PMS7003;36547;50.514;30.840;2023-12-20T05:31:42;22.20;20.80;13.30
50589;PMS7003;36547;50.514;30.840;2023-12-20T05:32:44;22.40;20.50;14.00
50589;PMS7003;36547;50.514;30.840;2023-12-20T05:33:47;21.80;20.90;14.90
50589;PMS7003;36547;50.514;30.840;2023-12-20T05:34:49;22.80;21.70;14.20
50589;PMS7003;36547;50.514;30.840;2023-12-20T05:35:52;26.10;23.90;16.60
50589;PMS7003;36547;50.514;30.840;2023-12-20T05:36:54;25.00;23.70;16.10
50589;PMS7003;36547;50.514;30.840;2023-12-20T05:37:58;30.90;25.90;17.20
50589;PMS7003;36547;50.514;30.840;2023-12-20T05:39:00;28.50;26.10;19.00
50589;PMS7003;36547;50.514;30.840;2023-12-20T05:40:03;24.70;23.30;15.90
50589;PMS7003;36547;50.514;30.840;2023-12-20T05:41:06;26.00;23.73;17.00
50589;PMS7003;36547;50.514;30.840;2023-12-20T05:42:08;28.60;26.10;17.20
50589;PMS7003;36547;50.514;30.840;2023-12-20T05:43:10;29.10;26.50;18.00
50589;PMS7003;36547;50.514;30.840;2023-12-20T05:44:13;38.20;32.10;20.60
50589;PMS7003;36547;50.514;30.840;2023-12-20T05:45:16;41.30;33.50;23.30
50589;PMS7003;36547;50.514;30.840;2023-12-20T05:46:20;36.80;32.30;20.60
50589;PMS7003;36547;50.514;30.840;2023-12-20T05:47:23;24.91;18.82;7.91
50589;PMS7003;36547;50.514;30.840;2023-12-20T05:48:25;30.70;27.30;16.90
50589;PMS7003;36547;50.514;30.840;2023-12-20T05:49:27;31.90;27.30;18.70
50589;PMS7003;36547;50.514;30.840;2023-12-20T05:50:31;33.10;27.90;18.50
50589;PMS7003;36547;50.514;30.840;2023-12-20T05:51:33;29.90;25.40;16.30
50589;PMS7003;36547;50.514;30.840;2023-12-20T05:52:36;25.20;22.80;14.50
50589;PMS7003;36547;50.514;30.840;2023-12-20T05:53:38;21.90;20.00;14.60
50589;PMS7003;36547;50.514;30.840;2023-12-20T05:54:40;23.10;20.00;12.90
50589;PMS7003;36547;50.514;30.840;2023-12-20T05:55:43;21.50;19.80;14.00
50589;PMS7003;36547;50.514;30.840;2023-12-20T05:56:46;17.45;16.73;12.64